Slobozia, Romania
Current Conditions -  °F | °C
As of 7:30 AM on Monday 26 Jan 2015 (Local Time) from LRBS Reporting Station
Overcast Overcast  
Wind Chill: 36°   Ceiling: 700
Heat Index: 36°   Visibility: 6mi
Dew Point: 36°   Wind: 1mph
Humidity: 100%   Direction: NA
Pressure: 30.12"   Gusts: NA
Location:  44.57°N, 27.38°E
Report Text: LRBS 260430Z VRB01KT 9999 OVC007 02/02 Q1020 R07/29//95 NOSIG
Loading
Personal Weather Stations






























Interactive Weather Map New forecast layout! Learn more

10-Day Weather Forecast

Advertisements
Track Severe Weather on mobile